createdAt,value
2023-02-11T00:00:06.125Z,19.53
2023-02-11T00:01:06.828Z,19.54
2023-02-11T00:02:06.345Z,19.53
2023-02-11T00:03:06.256Z,19.54
2023-02-11T00:04:06.216Z,19.54
2023-02-11T00:05:06.243Z,19.53
2023-02-11T00:06:06.259Z,19.54
2023-02-11T00:07:06.279Z,19.55
2023-02-11T00:08:06.304Z,19.55
2023-02-11T00:09:06.341Z,19.55
2023-02-11T00:10:06.361Z,19.53
2023-02-11T00:11:06.451Z,19.53
2023-02-11T00:12:06.463Z,19.52
2023-02-11T00:13:06.432Z,19.53
2023-02-11T00:14:06.453Z,19.53
2023-02-11T00:15:06.488Z,19.52
2023-02-11T00:16:06.497Z,19.51
2023-02-11T00:17:06.517Z,19.51
2023-02-11T00:18:06.545Z,19.53
2023-02-11T00:19:06.570Z,19.53
2023-02-11T00:20:08.238Z,19.53
2023-02-11T00:21:06.611Z,19.52
2023-02-11T00:22:06.653Z,19.52
2023-02-11T00:23:06.658Z,19.53
2023-02-11T00:24:06.675Z,19.52
2023-02-11T00:25:06.755Z,19.53
2023-02-11T00:26:06.716Z,19.54
2023-02-11T00:27:06.734Z,19.54
2023-02-11T00:28:06.798Z,19.54
2023-02-11T00:29:06.783Z,19.54
2023-02-11T00:30:06.812Z,19.52
2023-02-11T00:31:06.924Z,19.52
2023-02-11T00:32:06.844Z,19.52
2023-02-11T00:33:06.876Z,19.53
2023-02-11T00:34:06.894Z,19.52
2023-02-11T00:35:06.915Z,19.51
2023-02-11T00:36:06.938Z,19.51
2023-02-11T00:37:06.968Z,19.52
2023-02-11T00:38:06.990Z,19.52
2023-02-11T00:39:07.002Z,19.52
2023-02-11T00:40:07.048Z,19.51
2023-02-11T00:41:07.048Z,19.50
2023-02-11T00:42:07.140Z,19.51
2023-02-11T00:43:07.094Z,19.52
2023-02-11T00:44:07.119Z,19.51
2023-02-11T00:45:07.145Z,19.51
2023-02-11T00:46:07.196Z,19.51
2023-02-11T00:47:07.218Z,19.52
2023-02-11T00:48:07.320Z,19.52
2023-02-11T00:50:07.842Z,19.53
2023-02-11T00:51:07.327Z,19.52
2023-02-11T00:52:07.331Z,19.51
2023-02-11T00:53:07.376Z,19.50
2023-02-11T00:54:07.391Z,19.51
2023-02-11T00:55:07.418Z,19.50
2023-02-11T00:56:07.442Z,19.50
2023-02-11T00:57:07.472Z,19.49
2023-02-11T00:58:07.509Z,19.49
2023-02-11T01:47:08.916Z,19.48
2023-02-11T01:53:09.107Z,19.45
2023-02-11T01:55:09.165Z,19.46
2023-02-11T01:56:09.193Z,19.45
2023-02-11T01:57:09.232Z,19.45
2023-02-11T01:58:09.261Z,19.44
2023-02-11T01:59:09.310Z,19.42
2023-02-11T02:00:09.326Z,19.42
2023-02-11T02:01:09.349Z,19.44
2023-02-11T02:02:09.374Z,19.44
2023-02-11T02:03:09.414Z,19.47
2023-02-11T02:04:09.467Z,19.45
2023-02-11T02:05:09.489Z,19.46
2023-02-11T02:06:09.514Z,19.47
2023-02-11T02:07:09.552Z,19.46
2023-02-11T02:08:09.574Z,19.44
2023-02-11T02:09:09.614Z,19.45
2023-02-11T02:10:09.651Z,19.46
2023-02-11T02:12:09.701Z,19.46
2023-02-11T02:13:09.742Z,19.46
2023-02-11T02:14:09.777Z,19.47
2023-02-11T02:15:09.818Z,19.46
2023-02-11T02:16:10.192Z,19.47
2023-02-11T02:17:09.870Z,19.47
2023-02-11T02:19:10.920Z,19.44
2023-02-11T02:20:10.029Z,19.44
2023-02-11T02:21:10.000Z,19.43
2023-02-11T02:22:10.036Z,19.43
2023-02-11T02:23:10.069Z,19.42
2023-02-11T02:24:11.998Z,19.43
2023-02-11T02:25:10.107Z,19.43
2023-02-11T02:26:10.116Z,19.42
2023-02-11T02:27:10.144Z,19.44
2023-02-11T02:28:10.228Z,19.44
2023-02-11T02:29:10.169Z,19.44
2023-02-11T02:30:10.186Z,19.44
2023-02-11T02:31:10.341Z,19.44
2023-02-11T02:32:10.222Z,19.45
2023-02-11T02:33:21.852Z,19.44
2023-02-11T02:34:11.270Z,19.43
2023-02-11T02:35:10.282Z,19.44
2023-02-11T02:36:10.297Z,19.44
2023-02-11T02:37:10.330Z,19.44
2023-02-11T02:38:10.342Z,19.44
2023-02-11T02:39:10.353Z,19.44
2023-02-11T02:40:10.369Z,19.43
2023-02-11T02:41:10.383Z,19.44
2023-02-11T02:42:10.404Z,19.43
2023-02-11T04:48:15.431Z,19.32
2023-02-11T04:51:15.167Z,19.32
2023-02-11T04:52:15.213Z,19.31
2023-02-11T04:53:15.270Z,19.31
2023-02-11T04:54:15.296Z,19.32
2023-02-11T04:55:15.342Z,19.33
2023-02-11T04:56:15.393Z,19.33
2023-02-11T04:57:15.434Z,19.33
2023-02-11T04:58:15.481Z,19.34
2023-02-11T05:00:15.591Z,19.34
2023-02-11T05:01:15.667Z,19.34
2023-02-11T05:02:15.672Z,19.34
2023-02-11T05:03:15.712Z,19.33
2023-02-11T05:04:15.844Z,19.32
2023-02-11T05:05:15.801Z,19.31
2023-02-11T05:06:15.852Z,19.31
2023-02-11T05:08:15.947Z,19.28
2023-02-11T05:09:15.981Z,19.28
2023-02-11T08:02:25.199Z,19.24
2023-02-11T08:04:25.524Z,19.25
2023-02-11T08:05:25.238Z,19.25
2023-02-11T08:06:25.325Z,19.25
2023-02-11T08:07:25.355Z,19.24
2023-02-11T08:08:25.426Z,19.24
2023-02-11T08:09:25.481Z,19.25
2023-02-11T08:10:25.512Z,19.24
2023-02-11T08:11:25.575Z,19.23
2023-02-11T08:12:25.632Z,19.23
2023-02-11T08:13:25.668Z,19.24
2023-02-11T08:14:25.731Z,19.24
2023-02-11T08:15:25.778Z,19.23
2023-02-11T08:16:26.579Z,19.24
2023-02-11T08:17:25.894Z,19.23
2023-02-11T08:18:25.941Z,19.22
2023-02-11T08:19:26.014Z,19.22
2023-02-11T08:20:26.144Z,19.24
2023-02-11T08:21:26.113Z,19.23
2023-02-11T08:22:26.166Z,19.24
2023-02-11T08:23:26.294Z,19.24
2023-02-11T08:24:26.270Z,19.23
2023-02-11T08:25:26.316Z,19.22
2023-02-11T08:26:26.386Z,19.22
2023-02-11T08:27:26.439Z,19.21
2023-02-11T08:28:26.513Z,19.20
2023-02-11T08:30:27.632Z,19.22
2023-02-11T08:31:26.814Z,19.22
2023-02-11T08:32:26.683Z,19.20
2023-02-11T08:33:26.739Z,19.20
2023-02-11T08:34:26.788Z,19.21
2023-02-11T08:35:26.846Z,19.21
2023-02-11T08:36:26.897Z,19.21
2023-02-11T08:37:26.942Z,19.21
2023-02-11T08:38:26.996Z,19.22
2023-02-11T08:39:27.049Z,19.23
2023-02-11T08:40:27.108Z,19.23
2023-02-11T08:41:27.160Z,19.23
2023-02-11T08:42:27.211Z,19.22
2023-02-11T08:44:27.310Z,19.20
2023-02-11T08:45:27.372Z,19.21
2023-02-11T08:46:27.502Z,19.21
2023-02-11T12:22:35.568Z,19.39
2023-02-11T12:25:35.151Z,19.38
2023-02-11T12:26:35.189Z,19.37
2023-02-11T12:27:35.213Z,19.38
2023-02-11T12:28:35.310Z,19.37
2023-02-11T12:29:35.288Z,19.38
2023-02-11T12:31:35.480Z,19.36
2023-02-11T12:32:35.393Z,19.37
2023-02-11T12:33:35.427Z,19.37
2023-02-11T12:34:35.463Z,19.37
2023-02-11T12:35:35.520Z,19.37
2023-02-11T12:37:35.569Z,19.36
2023-02-11T12:38:35.609Z,19.36
2023-02-11T12:39:35.654Z,19.36
2023-02-11T12:40:35.694Z,19.36
2023-02-11T12:41:35.733Z,19.36
2023-02-11T12:42:35.760Z,19.36
2023-02-11T12:43:35.828Z,19.34
2023-02-11T12:44:35.834Z,19.35
2023-02-11T12:45:35.917Z,19.35
2023-02-11T12:46:35.911Z,19.34
2023-02-11T12:47:35.949Z,19.34
2023-02-11T12:48:36.008Z,19.34
2023-02-11T12:49:36.023Z,19.34
2023-02-11T12:50:36.059Z,19.33
2023-02-11T12:51:36.092Z,19.34
2023-02-11T12:52:36.126Z,19.34
2023-02-11T12:53:36.186Z,19.33
2023-02-11T12:54:36.212Z,19.33
2023-02-11T12:55:36.239Z,19.32
2023-02-11T12:56:36.277Z,19.31
2023-02-11T12:57:36.336Z,19.31
2023-02-11T12:58:45.032Z,19.30
2023-02-11T13:00:36.372Z,19.30
2023-02-11T13:01:36.482Z,19.30
2023-02-11T13:02:36.480Z,19.30
2023-02-11T13:03:36.408Z,19.30
2023-02-11T13:04:36.419Z,19.30
2023-02-11T13:05:36.442Z,19.30
2023-02-11T13:06:36.450Z,19.29
2023-02-11T13:07:36.452Z,19.28
2023-02-11T13:08:36.463Z,19.28
2023-02-11T13:09:36.477Z,19.29
2023-02-11T13:10:36.494Z,19.29
2023-02-11T13:11:36.502Z,19.29
2023-02-11T13:12:36.508Z,19.28
2023-02-11T13:13:36.526Z,19.29
2023-02-11T13:14:36.524Z,19.28
2023-02-11T13:15:36.611Z,19.28
2023-02-11T13:16:36.817Z,19.27
2023-02-11T13:17:36.580Z,19.26
2023-02-11T13:18:36.617Z,19.26
2023-02-11T13:19:36.656Z,19.27
2023-02-11T13:20:36.680Z,19.26
2023-02-11T13:21:36.724Z,19.27
2023-02-11T13:22:36.756Z,19.26
2023-02-11T13:23:36.792Z,19.26
2023-02-11T13:24:36.839Z,19.26
2023-02-11T13:25:36.873Z,19.26
2023-02-11T13:26:36.903Z,19.26
2023-02-11T13:27:36.953Z,19.26
2023-02-11T13:28:37.150Z,19.26
2023-02-11T13:29:37.021Z,19.25
2023-02-11T13:30:37.151Z,19.25
2023-02-11T13:31:37.282Z,19.25
2023-02-11T13:32:37.159Z,19.24
2023-02-11T13:33:37.215Z,19.24
2023-02-11T13:34:37.257Z,19.24
2023-02-11T13:35:37.303Z,19.24
2023-02-11T13:36:37.355Z,19.23
2023-02-11T13:37:37.402Z,19.23
2023-02-11T13:38:37.438Z,19.23
2023-02-11T13:39:37.487Z,19.23
2023-02-11T13:40:37.558Z,19.22
2023-02-11T13:41:37.586Z,19.22
2023-02-11T13:42:37.620Z,19.22
2023-02-11T13:44:37.710Z,19.22
2023-02-11T13:45:37.857Z,19.23
2023-02-11T13:46:37.789Z,19.22
2023-02-11T13:47:37.834Z,19.22
2023-02-11T13:48:37.878Z,19.22
2023-02-11T13:49:37.937Z,19.22
2023-02-11T13:50:37.983Z,19.21
2023-02-11T13:51:38.029Z,19.21
2023-02-11T13:52:38.077Z,19.22
2023-02-11T13:53:38.125Z,19.21
2023-02-11T13:54:38.182Z,19.21
2023-02-11T13:55:38.229Z,19.21
2023-02-11T17:08:45.153Z,18.90
2023-02-11T17:09:45.194Z,18.90
2023-02-11T17:10:45.235Z,18.90
2023-02-11T17:11:45.260Z,18.90
2023-02-11T17:12:45.306Z,18.90
2023-02-11T17:13:45.350Z,18.90
2023-02-11T17:14:45.389Z,18.90
2023-02-11T17:15:45.422Z,18.90
2023-02-11T17:16:45.504Z,18.89
2023-02-11T17:17:45.564Z,18.89
2023-02-11T17:18:45.555Z,18.88
2023-02-11T17:19:45.579Z,18.88
2023-02-11T17:20:45.685Z,18.89
2023-02-11T17:21:45.676Z,18.88
2023-02-11T17:22:45.697Z,18.88
2023-02-11T17:23:45.743Z,18.88
2023-02-11T17:24:45.784Z,18.87
2023-02-11T17:25:45.820Z,18.87
2023-02-11T17:26:45.929Z,18.87
2023-02-11T17:27:45.903Z,18.87
2023-02-11T17:28:45.942Z,18.87
2023-02-11T17:29:45.995Z,18.86
2023-02-11T17:30:46.082Z,18.87
2023-02-11T17:31:46.085Z,18.87
2023-02-11T17:32:46.115Z,18.87
2023-02-11T17:33:46.146Z,18.86
2023-02-11T17:34:46.184Z,18.86
2023-02-11T17:35:46.229Z,18.86
2023-02-11T17:36:46.268Z,18.86
2023-02-11T17:43:46.541Z,18.87
2023-02-11T17:44:46.584Z,18.86
2023-02-11T17:45:46.698Z,18.87
2023-02-11T17:46:46.674Z,18.87
2023-02-11T17:47:46.702Z,18.86
2023-02-11T17:48:46.740Z,18.86
2023-02-11T17:49:46.786Z,18.86
2023-02-11T17:50:46.825Z,18.86
2023-02-11T17:51:46.878Z,18.86
2023-02-11T17:52:46.917Z,18.86
2023-02-11T17:53:46.954Z,18.86
2023-02-11T17:55:47.046Z,18.86
2023-02-11T17:56:47.088Z,18.86
2023-02-11T21:11:55.155Z,18.71
2023-02-11T21:12:55.194Z,18.71
2023-02-11T21:13:55.255Z,18.71
2023-02-11T21:14:55.289Z,18.71
2023-02-11T21:16:55.367Z,18.71
2023-02-11T21:22:55.640Z,18.70
2023-02-11T21:23:55.695Z,18.70
2023-02-11T21:24:55.723Z,18.70
2023-02-11T21:25:56.152Z,18.70
2023-02-11T21:26:55.810Z,18.71
2023-02-11T21:27:55.927Z,18.71
2023-02-11T21:28:55.906Z,18.70
2023-02-11T21:29:55.949Z,18.70
2023-02-11T21:30:56.113Z,18.70
2023-02-11T21:31:56.165Z,18.70
2023-02-11T21:32:56.083Z,18.70
2023-02-11T21:33:56.135Z,18.70
2023-02-11T21:34:56.176Z,18.70
2023-02-11T21:35:56.616Z,18.70
2023-02-11T21:36:56.254Z,18.70
2023-02-11T21:37:56.302Z,18.69
2023-02-11T21:38:56.344Z,18.70
2023-02-11T21:39:56.394Z,18.70
2023-02-11T21:40:56.468Z,18.70
2023-02-11T21:41:56.476Z,18.70
2023-02-11T21:42:56.533Z,18.70
2023-02-11T21:43:56.584Z,18.70
2023-02-11T21:44:56.618Z,18.70
2023-02-11T21:45:56.875Z,18.70
2023-02-11T21:46:56.786Z,18.70
2023-02-11T21:47:56.749Z,18.70
2023-02-11T21:48:57.282Z,18.70
2023-02-11T21:49:56.828Z,18.69
2023-02-11T21:50:56.872Z,18.69
2023-02-11T21:51:56.916Z,18.69
2023-02-11T21:52:57.049Z,18.69
2023-02-11T21:53:57.006Z,18.70
2023-02-11T21:54:57.042Z,18.69
2023-02-11T21:55:57.160Z,18.69
2023-02-11T21:56:57.139Z,18.70
2023-02-11T21:57:57.780Z,18.70
2023-02-11T21:58:57.266Z,18.69
2023-02-11T21:59:57.269Z,18.69
2023-02-11T22:00:57.434Z,18.69
2023-02-11T22:01:57.355Z,18.69
2023-02-11T22:02:57.518Z,18.69
2023-02-11T22:03:57.449Z,18.68
2023-02-11T22:04:57.583Z,18.68
2023-02-11T22:05:57.718Z,18.68
2023-02-11T22:06:57.584Z,18.69
2023-02-11T22:07:57.623Z,18.68
2023-02-11T22:08:57.662Z,18.68
2023-02-11T22:09:57.711Z,18.68
2023-02-11T22:10:57.758Z,18.68
2023-02-11T22:11:57.802Z,18.68
2023-02-11T22:12:57.850Z,18.69
2023-02-11T22:13:57.988Z,18.69
2023-02-11T22:14:57.960Z,18.69
2023-02-11T22:15:58.130Z,18.69
2023-02-11T22:16:58.035Z,18.69
2023-02-11T22:17:58.127Z,18.68
2023-02-11T22:18:58.117Z,18.68
2023-02-11T22:19:58.240Z,18.68
2023-02-11T22:20:58.201Z,18.68
2023-02-11T22:21:58.248Z,18.68
2023-02-11T22:22:58.296Z,18.67
2023-02-11T22:23:59.318Z,18.67
2023-02-11T22:24:58.397Z,18.67
2023-02-11T22:25:58.482Z,18.66
2023-02-11T22:26:58.488Z,18.66
2023-02-11T22:27:58.584Z,18.67
2023-02-11T22:28:58.593Z,18.67
2023-02-11T22:29:58.637Z,18.66
2023-02-11T22:30:58.707Z,18.67
2023-02-11T22:31:58.811Z,18.66
2023-02-11T22:32:58.765Z,18.67
2023-02-11T22:33:58.816Z,18.67
2023-02-11T22:34:58.866Z,18.67
2023-02-11T22:35:58.916Z,18.67
2023-02-11T22:36:58.966Z,18.67
2023-02-11T22:37:59.016Z,18.66
